createdAt,value
2017-12-19T00:01:47.949Z,2.10
2017-12-19T00:04:16.072Z,2.10
2017-12-19T00:06:48.134Z,2.10
2017-12-19T00:09:16.293Z,2.10
2017-12-19T00:11:45.169Z,2.00
2017-12-19T00:14:13.299Z,2.00
2017-12-19T00:16:41.410Z,2.00
2017-12-19T00:19:09.562Z,2.00
2017-12-19T00:21:38.827Z,2.00
2017-12-19T00:24:06.976Z,2.00
2017-12-19T00:26:35.085Z,2.00
2017-12-19T00:29:03.222Z,2.00
2017-12-19T00:31:31.351Z,2.00
2017-12-19T00:34:00.276Z,2.00
2017-12-19T00:36:28.411Z,2.00
2017-12-19T00:38:57.304Z,2.00
2017-12-19T00:41:26.276Z,2.00
2017-12-19T00:43:54.769Z,2.00
2017-12-19T00:46:22.884Z,2.00
2017-12-19T00:48:51.024Z,2.00
2017-12-19T00:51:19.903Z,2.00
2017-12-19T00:53:48.106Z,2.00
2017-12-19T00:56:16.980Z,2.00
2017-12-19T00:58:45.918Z,2.00
2017-12-19T01:01:14.027Z,1.90
2017-12-19T01:03:42.923Z,1.90
2017-12-19T01:06:11.805Z,1.90
2017-12-19T01:08:39.952Z,1.90
2017-12-19T01:11:08.067Z,1.90
2017-12-19T01:13:36.962Z,2.00
2017-12-19T01:16:05.131Z,2.00
2017-12-19T01:18:34.052Z,1.90
2017-12-19T01:21:02.227Z,2.00
2017-12-19T01:23:30.362Z,1.90
2017-12-19T01:25:59.267Z,1.90
2017-12-19T01:28:27.401Z,1.90
2017-12-19T01:30:55.531Z,1.90
2017-12-19T01:33:23.692Z,1.90
2017-12-19T01:35:51.814Z,2.00
2017-12-19T01:38:19.972Z,1.90
2017-12-19T01:40:48.090Z,1.90
2017-12-19T01:43:16.220Z,1.90
2017-12-19T01:45:44.349Z,2.00
2017-12-19T01:48:12.482Z,1.90
2017-12-19T01:50:40.631Z,1.90
2017-12-19T01:53:08.736Z,2.00
2017-12-19T01:55:37.631Z,2.00
2017-12-19T01:58:05.903Z,1.90
2017-12-19T02:00:34.794Z,2.00
2017-12-19T02:03:03.687Z,1.90
2017-12-19T02:05:32.597Z,1.90
2017-12-19T02:08:00.716Z,1.90
2017-12-19T02:10:28.839Z,1.90
2017-12-19T02:12:56.994Z,1.90
2017-12-19T02:15:25.890Z,1.90
2017-12-19T02:17:54.770Z,1.90
2017-12-19T02:20:23.666Z,1.90
2017-12-19T02:22:52.597Z,1.90
2017-12-19T02:25:21.421Z,1.90
2017-12-19T02:27:49.573Z,1.90
2017-12-19T02:30:17.681Z,1.90
2017-12-19T02:32:46.573Z,1.90
2017-12-19T02:35:15.476Z,1.90
2017-12-19T02:37:44.365Z,1.90
2017-12-19T02:40:13.262Z,2.00
2017-12-19T02:42:53.163Z,1.90
2017-12-19T02:45:21.275Z,2.00
2017-12-19T02:47:49.399Z,1.90
2017-12-19T02:50:17.533Z,2.00
2017-12-19T02:52:45.672Z,1.90
2017-12-19T02:55:15.258Z,1.90
2017-12-19T02:57:43.400Z,1.90
2017-12-19T03:00:11.515Z,1.90
2017-12-19T03:02:39.645Z,1.90
2017-12-19T03:05:07.777Z,1.80
2017-12-19T03:07:36.665Z,1.70
2017-12-19T03:10:05.559Z,1.80
2017-12-19T03:12:34.426Z,1.80
2017-12-19T03:15:02.558Z,1.70
2017-12-19T03:17:30.703Z,1.70
2017-12-19T03:19:58.852Z,1.70
2017-12-19T03:22:27.744Z,1.70
2017-12-19T03:24:56.630Z,1.70
2017-12-19T03:27:25.508Z,1.70
2017-12-19T03:29:53.642Z,1.70
2017-12-19T03:32:21.755Z,1.70
2017-12-19T03:34:49.913Z,1.80
2017-12-19T03:37:18.027Z,1.80
2017-12-19T03:39:46.916Z,1.80
2017-12-19T03:42:15.796Z,1.80
2017-12-19T03:44:44.691Z,1.80
2017-12-19T03:47:13.602Z,1.80
2017-12-19T03:49:41.729Z,1.80
2017-12-19T03:52:09.864Z,1.80
2017-12-19T03:54:37.983Z,1.80
2017-12-19T03:57:06.097Z,1.80
2017-12-19T03:59:34.231Z,1.80
2017-12-19T04:02:03.126Z,1.80
2017-12-19T04:04:32.014Z,1.90
2017-12-19T04:07:00.901Z,1.80
2017-12-19T04:09:29.016Z,1.80
2017-12-19T04:11:57.135Z,1.80
2017-12-19T04:14:25.275Z,1.80
2017-12-19T04:16:55.439Z,1.80
2017-12-19T04:19:24.328Z,1.80
2017-12-19T04:21:53.223Z,1.80
2017-12-19T04:24:22.113Z,1.80
2017-12-19T04:26:51.002Z,1.80
2017-12-19T04:29:19.891Z,1.80
2017-12-19T04:31:48.830Z,1.80
2017-12-19T04:34:16.953Z,1.80
2017-12-19T04:36:45.864Z,1.80
2017-12-19T04:39:14.005Z,1.80
2017-12-19T04:41:42.123Z,1.80
2017-12-19T04:44:10.263Z,1.80
2017-12-19T04:46:39.143Z,1.80
2017-12-19T04:49:08.030Z,1.80
2017-12-19T04:51:36.910Z,1.80
2017-12-19T04:54:05.136Z,1.80
2017-12-19T04:56:34.130Z,1.90
2017-12-19T04:59:02.244Z,1.90
2017-12-19T05:01:30.365Z,1.90
2017-12-19T05:03:58.481Z,1.90
2017-12-19T05:06:26.719Z,1.90
2017-12-19T05:08:54.829Z,1.90
2017-12-19T05:11:22.958Z,1.90
2017-12-19T05:13:51.078Z,1.90
2017-12-19T05:16:19.212Z,1.90
2017-12-19T05:18:47.332Z,1.90
2017-12-19T05:21:15.453Z,1.90
2017-12-19T05:23:43.584Z,1.90
2017-12-19T05:26:12.453Z,1.70
2017-12-19T05:28:40.684Z,1.70
2017-12-19T05:31:08.788Z,1.70
2017-12-19T05:33:36.911Z,1.70
2017-12-19T05:36:05.611Z,1.70
2017-12-19T05:38:33.756Z,1.70
2017-12-19T05:41:02.630Z,1.70
2017-12-19T05:43:30.764Z,1.70
2017-12-19T05:45:58.914Z,1.70
2017-12-19T05:48:27.823Z,1.70
2017-12-19T05:50:56.667Z,1.80
2017-12-19T05:53:25.556Z,1.80
2017-12-19T05:55:54.458Z,1.80
2017-12-19T05:58:22.580Z,1.70
2017-12-19T06:00:50.703Z,1.80
2017-12-19T06:03:18.848Z,1.80
2017-12-19T06:05:47.064Z,1.80
2017-12-19T06:08:15.931Z,1.80
2017-12-19T06:10:44.811Z,1.80
2017-12-19T06:13:13.737Z,1.80
2017-12-19T06:15:41.860Z,1.80
2017-12-19T06:18:10.017Z,1.80
2017-12-19T06:20:38.155Z,1.80
2017-12-19T06:23:06.283Z,1.80
2017-12-19T06:25:35.191Z,1.80
2017-12-19T06:28:04.087Z,1.80
2017-12-19T06:30:32.967Z,1.80
2017-12-19T06:33:01.859Z,1.80
2017-12-19T06:35:30.778Z,1.90
2017-12-19T06:37:58.895Z,1.80
2017-12-19T06:40:27.038Z,1.90
2017-12-19T06:42:55.171Z,1.90
2017-12-19T06:45:23.303Z,1.90
2017-12-19T06:47:51.422Z,1.90
2017-12-19T06:50:19.565Z,1.90
2017-12-19T06:52:47.703Z,1.90
2017-12-19T06:55:15.829Z,1.90
2017-12-19T06:57:43.992Z,1.90
2017-12-19T07:00:12.911Z,1.90
2017-12-19T07:02:41.021Z,1.90
2017-12-19T07:05:09.158Z,1.90
2017-12-19T07:07:37.286Z,1.90
2017-12-19T07:10:05.699Z,1.90
2017-12-19T07:12:33.846Z,1.80
2017-12-19T07:15:02.759Z,1.90
2017-12-19T07:17:30.886Z,1.90
2017-12-19T07:19:59.020Z,1.90
2017-12-19T07:22:27.186Z,1.90
2017-12-19T07:24:55.302Z,1.90
2017-12-19T07:27:23.469Z,1.90
2017-12-19T07:29:51.593Z,1.90
2017-12-19T07:32:19.752Z,1.90
2017-12-19T07:34:48.661Z,1.90
2017-12-19T07:37:16.790Z,1.90
2017-12-19T07:39:44.952Z,1.90
2017-12-19T07:42:13.068Z,1.90
2017-12-19T07:44:41.188Z,1.90
2017-12-19T07:47:09.329Z,1.90
2017-12-19T07:49:37.598Z,1.90
2017-12-19T07:52:06.472Z,1.90
2017-12-19T07:54:34.616Z,1.80
2017-12-19T07:57:02.763Z,1.80
2017-12-19T07:59:30.907Z,1.80
2017-12-19T08:01:59.058Z,1.80
2017-12-19T08:04:27.190Z,1.80
2017-12-19T08:06:55.338Z,1.90
2017-12-19T08:09:24.462Z,1.90
2017-12-19T08:11:52.591Z,1.90
2017-12-19T08:14:20.794Z,2.00
2017-12-19T08:16:48.915Z,2.00
2017-12-19T08:19:17.823Z,2.00
2017-12-19T08:21:45.946Z,2.00
2017-12-19T08:24:14.075Z,2.10
2017-12-19T08:26:42.195Z,2.10
2017-12-19T08:29:10.332Z,2.10
2017-12-19T08:31:38.483Z,2.10
2017-12-19T08:34:06.674Z,2.10
2017-12-19T08:36:35.787Z,2.10
2017-12-19T08:39:03.913Z,2.10
2017-12-19T08:41:32.831Z,2.20
2017-12-19T08:44:00.978Z,2.20
2017-12-19T08:46:29.889Z,2.10
2017-12-19T08:48:58.044Z,2.10
2017-12-19T08:51:26.946Z,2.20
2017-12-19T08:53:55.834Z,2.20
2017-12-19T08:56:23.972Z,2.20
2017-12-19T08:58:52.117Z,2.30
2017-12-19T09:01:20.245Z,2.30
2017-12-19T09:03:48.550Z,2.30
2017-12-19T09:06:16.655Z,2.30
2017-12-19T09:08:44.802Z,2.30
2017-12-19T09:11:12.931Z,2.30
2017-12-19T09:13:41.826Z,2.20
2017-12-19T09:16:10.743Z,2.30
2017-12-19T09:18:38.907Z,2.20
2017-12-19T09:21:07.059Z,2.30
2017-12-19T09:23:35.946Z,2.30
2017-12-19T09:26:04.845Z,2.40
2017-12-19T09:28:33.758Z,2.40
2017-12-19T09:31:01.941Z,2.30
2017-12-19T09:33:30.088Z,2.40
2017-12-19T09:35:58.975Z,2.40
2017-12-19T09:38:27.868Z,2.40
2017-12-19T09:40:55.984Z,2.40
2017-12-19T09:43:24.123Z,2.50
2017-12-19T09:45:52.229Z,2.50
2017-12-19T09:48:20.384Z,2.60
2017-12-19T09:50:48.501Z,2.70
2017-12-19T09:53:16.650Z,2.70
2017-12-19T09:55:44.773Z,2.70
2017-12-19T09:58:12.909Z,2.70
2017-12-19T10:00:41.080Z,2.80
2017-12-19T10:03:09.179Z,2.80
2017-12-19T10:05:37.337Z,2.70
2017-12-19T10:08:07.374Z,2.80
2017-12-19T10:10:36.285Z,2.80
2017-12-19T10:13:04.395Z,2.80
2017-12-19T10:15:32.544Z,2.70
2017-12-19T10:18:00.681Z,2.80
2017-12-19T10:20:28.823Z,2.80
2017-12-19T10:22:56.959Z,2.90
2017-12-19T10:25:25.084Z,2.80
2017-12-19T10:27:54.007Z,2.80
2017-12-19T10:30:22.137Z,2.80
2017-12-19T10:32:51.075Z,2.90
2017-12-19T10:35:19.207Z,2.90
2017-12-19T10:37:48.149Z,2.90
2017-12-19T10:40:16.325Z,2.90
2017-12-19T10:42:44.468Z,2.90
2017-12-19T10:45:12.640Z,3.00
2017-12-19T10:47:40.766Z,3.00
2017-12-19T10:50:08.924Z,3.00
2017-12-19T10:52:37.027Z,3.00
2017-12-19T10:55:05.950Z,2.90
2017-12-19T10:57:34.099Z,2.90
2017-12-19T11:00:03.930Z,2.90
2017-12-19T11:02:32.818Z,2.80
2017-12-19T11:05:00.946Z,2.80
2017-12-19T11:07:29.083Z,2.80
2017-12-19T11:09:57.218Z,2.80
2017-12-19T11:12:26.970Z,2.80
2017-12-19T11:14:55.110Z,2.80
2017-12-19T11:17:23.222Z,2.80
2017-12-19T11:19:51.381Z,2.90
2017-12-19T11:22:19.499Z,2.80
2017-12-19T11:24:47.644Z,2.70
2017-12-19T11:27:15.766Z,2.70
2017-12-19T11:29:43.946Z,2.70
2017-12-19T11:32:12.111Z,2.70
2017-12-19T11:34:41.035Z,2.70
2017-12-19T11:37:09.219Z,2.60
2017-12-19T11:39:37.593Z,2.60
2017-12-19T11:42:05.749Z,2.70
2017-12-19T11:44:33.874Z,2.70
2017-12-19T11:47:02.035Z,2.80
2017-12-19T11:49:30.148Z,2.70
2017-12-19T11:51:59.175Z,2.80
2017-12-19T11:54:27.316Z,2.90
2017-12-19T11:56:55.460Z,2.90
2017-12-19T11:59:23.589Z,2.90
2017-12-19T12:01:54.273Z,3.10
2017-12-19T12:04:22.391Z,3.10
2017-12-19T12:06:50.539Z,3.20
2017-12-19T12:09:18.687Z,3.20
2017-12-19T12:11:47.588Z,3.20
2017-12-19T12:14:16.903Z,3.30
2017-12-19T12:16:45.784Z,3.20
2017-12-19T12:19:14.700Z,3.20
2017-12-19T12:21:42.826Z,3.10
2017-12-19T12:24:10.977Z,3.10
2017-12-19T12:26:39.117Z,3.20
2017-12-19T12:29:07.253Z,3.20
2017-12-19T12:31:36.172Z,3.30
2017-12-19T12:34:04.287Z,3.30
2017-12-19T12:36:32.459Z,3.30
2017-12-19T12:39:00.599Z,3.40
2017-12-19T12:41:28.741Z,3.40
2017-12-19T12:43:57.627Z,3.50
2017-12-19T12:46:26.517Z,3.60
2017-12-19T12:48:56.043Z,3.60
2017-12-19T12:51:24.187Z,3.60
2017-12-19T12:53:53.096Z,3.60
2017-12-19T12:56:21.262Z,3.60
2017-12-19T12:58:50.151Z,3.60
2017-12-19T13:01:20.912Z,3.50
2017-12-19T13:03:49.095Z,3.60
2017-12-19T13:06:17.226Z,3.60
2017-12-19T13:08:46.112Z,3.50
2017-12-19T13:11:15.044Z,3.40
2017-12-19T13:13:43.164Z,3.40
2017-12-19T13:16:12.140Z,3.40
2017-12-19T13:18:40.246Z,3.30
2017-12-19T13:21:08.430Z,3.40
2017-12-19T13:23:36.602Z,3.40
2017-12-19T13:26:04.735Z,3.30
2017-12-19T13:28:32.914Z,3.30
2017-12-19T13:31:01.034Z,3.40
2017-12-19T13:33:29.209Z,3.30
2017-12-19T13:35:57.311Z,3.30
2017-12-19T13:38:25.431Z,3.20
2017-12-19T13:40:53.583Z,3.10
2017-12-19T13:43:22.482Z,2.90
2017-12-19T13:45:50.704Z,2.90
2017-12-19T13:48:18.836Z,2.80
2017-12-19T13:50:46.976Z,2.80
2017-12-19T13:53:15.099Z,2.80
2017-12-19T13:55:43.222Z,2.80
2017-12-19T13:58:11.379Z,2.80
2017-12-19T14:00:39.527Z,2.80
2017-12-19T14:03:07.699Z,2.80
2017-12-19T14:05:35.829Z,2.80
2017-12-19T14:08:04.793Z,2.80
2017-12-19T14:10:32.894Z,2.80
2017-12-19T14:13:01.076Z,2.70
2017-12-19T14:15:29.217Z,2.80
2017-12-19T14:17:57.352Z,2.70
2017-12-19T14:20:25.496Z,2.70
2017-12-19T14:22:53.647Z,2.80
2017-12-19T14:25:21.788Z,2.70
2017-12-19T14:27:50.004Z,2.70
2017-12-19T14:30:18.906Z,2.80
2017-12-19T14:32:47.092Z,2.70
2017-12-19T14:35:15.203Z,2.80
2017-12-19T14:37:43.346Z,2.70
2017-12-19T14:40:11.486Z,2.70
2017-12-19T14:42:39.650Z,2.60
2017-12-19T14:45:07.767Z,2.50
2017-12-19T14:47:35.928Z,2.50
2017-12-19T14:50:04.058Z,2.50
2017-12-19T14:52:32.957Z,2.60
2017-12-19T14:55:01.914Z,2.70
2017-12-19T14:57:30.060Z,2.70
2017-12-19T14:59:58.203Z,2.70
2017-12-19T15:02:27.217Z,2.60
2017-12-19T15:04:55.340Z,2.50
2017-12-19T15:07:24.266Z,2.50
2017-12-19T15:09:52.397Z,2.50
2017-12-19T15:12:20.635Z,2.50
2017-12-19T15:14:48.761Z,2.50
2017-12-19T15:17:16.909Z,2.40
2017-12-19T15:19:45.035Z,2.40
2017-12-19T15:22:13.203Z,2.40
2017-12-19T15:24:42.297Z,2.50
2017-12-19T15:27:10.454Z,2.50
2017-12-19T15:29:39.350Z,2.50
2017-12-19T15:32:08.210Z,2.50
2017-12-19T15:34:36.366Z,2.50
2017-12-19T15:37:05.265Z,2.50
2017-12-19T15:39:33.408Z,2.50
2017-12-19T15:42:01.547Z,2.50
2017-12-19T15:44:29.719Z,2.50
2017-12-19T15:46:57.834Z,2.50
2017-12-19T15:49:26.724Z,2.50
2017-12-19T15:51:54.872Z,2.50
2017-12-19T15:54:23.006Z,2.60
2017-12-19T15:56:51.932Z,2.60
2017-12-19T15:59:20.067Z,2.60
2017-12-19T16:01:48.256Z,2.60
2017-12-19T16:04:17.145Z,2.60
2017-12-19T16:06:46.042Z,2.60
2017-12-19T16:09:14.211Z,2.60
2017-12-19T16:11:42.356Z,2.60
2017-12-19T16:14:10.547Z,2.60
2017-12-19T16:16:38.677Z,2.50
2017-12-19T16:19:06.913Z,2.50
2017-12-19T16:21:35.782Z,2.50
2017-12-19T16:24:04.687Z,2.40
2017-12-19T16:26:32.827Z,2.40
2017-12-19T16:29:00.962Z,2.40
2017-12-19T16:31:29.095Z,2.40
2017-12-19T16:33:58.011Z,2.40
2017-12-19T16:36:26.201Z,2.40
2017-12-19T16:38:54.313Z,2.40
2017-12-19T16:41:22.435Z,2.40
2017-12-19T16:43:50.581Z,2.50
2017-12-19T16:46:18.743Z,2.40
2017-12-19T16:48:47.656Z,2.40
2017-12-19T16:51:15.803Z,2.40
2017-12-19T16:53:43.926Z,2.40
2017-12-19T16:56:12.064Z,2.40
2017-12-19T16:58:40.238Z,2.40
2017-12-19T17:01:09.146Z,2.40
2017-12-19T17:03:37.303Z,2.40
2017-12-19T17:06:05.455Z,2.40
2017-12-19T17:08:34.685Z,2.50
2017-12-19T17:11:02.804Z,2.40
2017-12-19T17:13:31.719Z,2.40
2017-12-19T17:16:00.636Z,2.40
2017-12-19T17:18:28.781Z,2.40
2017-12-19T17:20:56.911Z,2.40
2017-12-19T17:23:25.204Z,2.40
2017-12-19T17:25:53.677Z,2.40
2017-12-19T17:28:21.823Z,2.40
2017-12-19T17:30:49.979Z,2.30
2017-12-19T17:33:18.159Z,2.40
2017-12-19T17:35:46.546Z,2.40
2017-12-19T17:38:15.219Z,2.40
2017-12-19T17:40:43.388Z,2.40
2017-12-19T17:43:11.698Z,2.40
2017-12-19T17:45:39.871Z,2.40
2017-12-19T17:48:08.080Z,2.40
2017-12-19T17:50:37.723Z,2.40
2017-12-19T17:53:05.968Z,2.40
2017-12-19T17:55:34.075Z,2.40
2017-12-19T17:58:03.107Z,2.40
2017-12-19T18:00:32.336Z,2.40
2017-12-19T18:03:01.258Z,2.40
2017-12-19T18:05:29.395Z,2.40
2017-12-19T18:07:58.649Z,2.40
2017-12-19T18:10:26.850Z,2.40
2017-12-19T18:12:55.170Z,2.40
2017-12-19T18:15:23.480Z,2.40
2017-12-19T18:17:51.671Z,2.40
2017-12-19T18:20:19.815Z,2.40
2017-12-19T18:22:47.969Z,2.40
2017-12-19T18:25:16.421Z,2.50
2017-12-19T18:27:45.289Z,2.50
2017-12-19T18:30:14.340Z,2.40
2017-12-19T18:32:42.627Z,2.40
2017-12-19T18:35:10.810Z,2.40
2017-12-19T18:37:38.957Z,2.40
2017-12-19T18:40:07.111Z,2.40
2017-12-19T18:42:35.301Z,2.40
2017-12-19T18:45:03.616Z,2.40
2017-12-19T18:47:31.756Z,2.40
2017-12-19T18:49:59.878Z,2.40
2017-12-19T18:52:28.775Z,2.40
2017-12-19T18:54:57.710Z,2.40
2017-12-19T18:57:25.891Z,2.40
2017-12-19T18:59:54.227Z,2.40
2017-12-19T19:02:23.397Z,2.50
2017-12-19T19:04:51.546Z,2.50
2017-12-19T19:07:19.795Z,2.50
2017-12-19T19:09:47.921Z,2.40
2017-12-19T19:12:16.093Z,2.50
2017-12-19T19:14:44.333Z,2.50
2017-12-19T19:17:12.580Z,2.50
2017-12-19T19:19:40.773Z,2.40
2017-12-19T19:22:08.946Z,2.40
2017-12-19T19:24:37.100Z,2.40
2017-12-19T19:27:05.979Z,2.30
2017-12-19T19:29:34.128Z,2.20
2017-12-19T19:32:02.276Z,2.30
2017-12-19T19:34:30.431Z,2.30
2017-12-19T19:36:58.703Z,2.20
2017-12-19T19:39:27.136Z,2.20
2017-12-19T19:41:56.193Z,2.20
2017-12-19T19:44:24.357Z,2.20
2017-12-19T19:46:52.552Z,2.20
2017-12-19T19:49:20.684Z,2.20
2017-12-19T19:51:49.114Z,2.20
2017-12-19T19:54:17.297Z,2.20
2017-12-19T19:56:45.585Z,2.20
2017-12-19T19:59:14.617Z,2.10
2017-12-19T20:01:42.831Z,2.10
2017-12-19T20:04:10.939Z,2.00
2017-12-19T20:06:39.108Z,2.00
2017-12-19T20:09:07.379Z,2.00
2017-12-19T20:11:36.431Z,2.00
2017-12-19T20:14:04.631Z,1.90
2017-12-19T20:16:33.563Z,1.90
2017-12-19T20:19:01.764Z,1.90
2017-12-19T20:21:29.941Z,1.90
2017-12-19T20:23:58.189Z,1.90
2017-12-19T20:26:26.512Z,1.90
2017-12-19T20:28:54.694Z,2.00
2017-12-19T20:31:24.633Z,2.00
2017-12-19T20:33:52.856Z,2.00
2017-12-19T20:36:21.312Z,2.00
2017-12-19T20:38:49.467Z,2.10
2017-12-19T20:41:17.653Z,2.20
2017-12-19T20:43:45.861Z,2.20
2017-12-19T20:46:13.993Z,2.20
2017-12-19T20:48:43.410Z,2.20
2017-12-19T20:51:11.578Z,2.10
2017-12-19T20:53:39.754Z,2.10
2017-12-19T20:56:07.936Z,2.20
2017-12-19T20:58:36.393Z,2.20
2017-12-19T21:01:04.642Z,2.20
2017-12-19T21:03:32.857Z,2.20
2017-12-19T21:06:01.317Z,2.20
2017-12-19T21:08:29.476Z,2.10
2017-12-19T21:10:57.676Z,2.10
2017-12-19T21:13:25.833Z,2.10
2017-12-19T21:15:54.240Z,2.00
2017-12-19T21:18:22.497Z,2.00
2017-12-19T21:20:51.607Z,1.90
2017-12-19T21:23:20.576Z,1.90
2017-12-19T21:25:48.753Z,1.90
2017-12-19T21:28:17.026Z,1.90
2017-12-19T21:30:45.474Z,1.90
2017-12-19T21:33:14.850Z,1.90
2017-12-19T21:35:43.292Z,1.90
2017-12-19T21:38:11.732Z,1.90
2017-12-19T21:40:40.465Z,1.90
2017-12-19T21:43:09.368Z,2.00
2017-12-19T21:45:38.284Z,1.90
2017-12-19T21:48:09.769Z,1.90
2017-12-19T21:50:38.917Z,1.90
2017-12-19T21:53:07.930Z,1.90
2017-12-19T21:55:36.037Z,1.90
2017-12-19T21:58:09.095Z,1.90
2017-12-19T22:00:37.232Z,1.80
2017-12-19T22:03:05.408Z,1.80
2017-12-19T22:05:33.576Z,1.80
2017-12-19T22:10:34.974Z,1.70
2017-12-19T22:13:03.847Z,1.70
2017-12-19T22:15:32.745Z,1.80
2017-12-19T22:18:01.654Z,1.80
2017-12-19T22:20:37.843Z,1.70
2017-12-19T22:23:06.030Z,1.70
2017-12-19T22:25:34.911Z,1.50
2017-12-19T22:28:10.796Z,1.50
2017-12-19T22:30:39.140Z,1.50
2017-12-19T22:33:07.276Z,1.50
2017-12-19T22:35:35.446Z,1.50
2017-12-19T22:38:08.886Z,1.50
2017-12-19T22:40:37.076Z,1.50
2017-12-19T22:43:05.188Z,1.50
2017-12-19T22:45:33.342Z,1.60
2017-12-19T22:48:01.503Z,1.50
2017-12-19T22:50:36.140Z,1.50
2017-12-19T22:53:04.262Z,1.50
2017-12-19T22:55:32.428Z,1.60
2017-12-19T22:58:00.586Z,1.60
2017-12-19T23:00:28.922Z,1.60
2017-12-19T23:02:57.839Z,1.60
2017-12-19T23:05:26.758Z,1.50
2017-12-19T23:07:55.068Z,1.50
2017-12-19T23:10:23.459Z,1.50
2017-12-19T23:12:51.618Z,1.50
2017-12-19T23:15:19.756Z,1.60
2017-12-19T23:17:47.919Z,1.50
2017-12-19T23:20:16.057Z,1.50
2017-12-19T23:22:44.247Z,1.60
2017-12-19T23:25:12.432Z,1.60
2017-12-19T23:27:40.635Z,1.60
2017-12-19T23:30:10.879Z,1.60
2017-12-19T23:32:39.038Z,1.60
2017-12-19T23:35:07.183Z,1.50
2017-12-19T23:37:35.354Z,1.50
2017-12-19T23:40:10.629Z,1.60
2017-12-19T23:42:38.793Z,1.50
2017-12-19T23:45:07.684Z,1.50
2017-12-19T23:47:36.602Z,1.50
2017-12-19T23:50:09.252Z,1.50
2017-12-19T23:52:37.403Z,1.40
2017-12-19T23:55:05.527Z,1.40
2017-12-19T23:57:34.551Z,1.40
